sensor_id;sensor_type;location;lat;lon;timestamp;P1;durP1;ratioP1;P2;durP2;ratioP2
19189;SDS011;9727;50.200;19.038;2023-03-01T00:00:20;138.80;;;59.43;;
19189;SDS011;9727;50.200;19.038;2023-03-01T00:02:50;149.20;;;57.50;;
19189;SDS011;9727;50.200;19.038;2023-03-01T00:05:16;148.70;;;58.27;;
19189;SDS011;9727;50.200;19.038;2023-03-01T00:07:43;138.07;;;55.33;;
19189;SDS011;9727;50.200;19.038;2023-03-01T00:10:11;146.30;;;59.17;;
19189;SDS011;9727;50.200;19.038;2023-03-01T00:12:38;143.47;;;56.73;;
19189;SDS011;9727;50.200;19.038;2023-03-01T00:15:05;138.00;;;54.20;;
19189;SDS011;9727;50.200;19.038;2023-03-01T00:17:32;137.03;;;56.40;;
19189;SDS011;9727;50.200;19.038;2023-03-01T00:19:58;133.57;;;55.57;;
19189;SDS011;9727;50.200;19.038;2023-03-01T00:22:26;148.43;;;57.90;;
19189;SDS011;9727;50.200;19.038;2023-03-01T00:24:53;148.97;;;57.50;;
19189;SDS011;9727;50.200;19.038;2023-03-01T00:27:21;144.07;;;56.63;;
19189;SDS011;9727;50.200;19.038;2023-03-01T00:29:47;140.70;;;55.70;;
19189;SDS011;9727;50.200;19.038;2023-03-01T00:32:16;138.00;;;54.53;;
19189;SDS011;9727;50.200;19.038;2023-03-01T00:34:43;133.13;;;52.43;;
19189;SDS011;9727;50.200;19.038;2023-03-01T00:37:19;137.57;;;52.27;;
19189;SDS011;9727;50.200;19.038;2023-03-01T00:39:46;139.83;;;54.33;;
19189;SDS011;9727;50.200;19.038;2023-03-01T00:42:14;130.67;;;51.73;;
19189;SDS011;9727;50.200;19.038;2023-03-01T00:44:42;156.27;;;57.57;;
19189;SDS011;9727;50.200;19.038;2023-03-01T00:47:09;129.40;;;56.07;;
19189;SDS011;9727;50.200;19.038;2023-03-01T00:49:35;144.97;;;56.77;;
19189;SDS011;9727;50.200;19.038;2023-03-01T00:52:02;137.90;;;55.23;;
19189;SDS011;9727;50.200;19.038;2023-03-01T00:54:28;136.83;;;56.33;;
19189;SDS011;9727;50.200;19.038;2023-03-01T00:56:55;149.20;;;58.27;;
19189;SDS011;9727;50.200;19.038;2023-03-01T00:59:22;154.67;;;60.20;;
19189;SDS011;9727;50.200;19.038;2023-03-01T01:01:51;139.73;;;57.83;;
19189;SDS011;9727;50.200;19.038;2023-03-01T01:04:18;146.50;;;59.30;;
19189;SDS011;9727;50.200;19.038;2023-03-01T01:06:45;145.40;;;57.80;;
19189;SDS011;9727;50.200;19.038;2023-03-01T01:09:13;144.10;;;57.97;;
19189;SDS011;9727;50.200;19.038;2023-03-01T01:11:43;140.63;;;55.20;;
19189;SDS011;9727;50.200;19.038;2023-03-01T01:14:10;134.27;;;55.27;;
19189;SDS011;9727;50.200;19.038;2023-03-01T01:16:36;142.37;;;55.63;;
19189;SDS011;9727;50.200;19.038;2023-03-01T01:19:04;140.83;;;56.20;;
19189;SDS011;9727;50.200;19.038;2023-03-01T01:21:31;148.73;;;56.60;;
19189;SDS011;9727;50.200;19.038;2023-03-01T01:23:58;148.50;;;60.80;;
19189;SDS011;9727;50.200;19.038;2023-03-01T01:26:25;150.63;;;60.97;;
19189;SDS011;9727;50.200;19.038;2023-03-01T01:28:53;135.80;;;58.60;;
19189;SDS011;9727;50.200;19.038;2023-03-01T01:31:20;140.60;;;58.63;;
19189;SDS011;9727;50.200;19.038;2023-03-01T01:33:48;143.00;;;56.63;;
19189;SDS011;9727;50.200;19.038;2023-03-01T01:36:20;143.40;;;56.90;;
19189;SDS011;9727;50.200;19.038;2023-03-01T01:38:47;134.80;;;54.93;;
19189;SDS011;9727;50.200;19.038;2023-03-01T01:41:15;143.97;;;54.93;;
19189;SDS011;9727;50.200;19.038;2023-03-01T01:43:43;132.70;;;54.47;;
19189;SDS011;9727;50.200;19.038;2023-03-01T01:46:13;149.27;;;55.90;;
19189;SDS011;9727;50.200;19.038;2023-03-01T01:48:43;126.33;;;53.37;;
19189;SDS011;9727;50.200;19.038;2023-03-01T01:51:14;140.27;;;54.13;;
19189;SDS011;9727;50.200;19.038;2023-03-01T01:53:44;134.07;;;51.77;;
19189;SDS011;9727;50.200;19.038;2023-03-01T01:56:12;122.47;;;49.97;;
19189;SDS011;9727;50.200;19.038;2023-03-01T01:58:40;123.13;;;48.47;;
19189;SDS011;9727;50.200;19.038;2023-03-01T02:01:07;117.33;;;47.17;;
19189;SDS011;9727;50.200;19.038;2023-03-01T02:03:34;113.87;;;45.73;;
19189;SDS011;9727;50.200;19.038;2023-03-01T02:06:08;130.93;;;51.13;;
19189;SDS011;9727;50.200;19.038;2023-03-01T02:08:38;140.27;;;53.33;;
19189;SDS011;9727;50.200;19.038;2023-03-01T02:11:07;122.83;;;49.20;;
19189;SDS011;9727;50.200;19.038;2023-03-01T02:13:34;132.10;;;52.53;;
19189;SDS011;9727;50.200;19.038;2023-03-01T02:16:02;122.60;;;49.90;;
19189;SDS011;9727;50.200;19.038;2023-03-01T02:18:29;138.87;;;55.63;;
19189;SDS011;9727;50.200;19.038;2023-03-01T02:20:59;126.83;;;53.20;;
19189;SDS011;9727;50.200;19.038;2023-03-01T02:23:29;139.70;;;54.53;;
19189;SDS011;9727;50.200;19.038;2023-03-01T02:26:00;138.87;;;55.53;;
19189;SDS011;9727;50.200;19.038;2023-03-01T02:28:32;135.70;;;52.70;;
19189;SDS011;9727;50.200;19.038;2023-03-01T02:30:59;123.53;;;49.50;;
19189;SDS011;9727;50.200;19.038;2023-03-01T02:33:44;133.40;;;51.17;;
19189;SDS011;9727;50.200;19.038;2023-03-01T02:36:15;123.03;;;51.07;;
19189;SDS011;9727;50.200;19.038;2023-03-01T02:38:43;127.77;;;51.80;;
19189;SDS011;9727;50.200;19.038;2023-03-01T02:41:10;138.73;;;52.37;;
19189;SDS011;9727;50.200;19.038;2023-03-01T02:43:39;134.67;;;52.47;;
19189;SDS011;9727;50.200;19.038;2023-03-01T02:46:07;146.77;;;58.33;;
19189;SDS011;9727;50.200;19.038;2023-03-01T02:48:40;165.37;;;60.17;;
19189;SDS011;9727;50.200;19.038;2023-03-01T02:51:09;171.07;;;62.17;;
19189;SDS011;9727;50.200;19.038;2023-03-01T02:53:39;179.17;;;63.30;;
19189;SDS011;9727;50.200;19.038;2023-03-01T02:56:08;156.63;;;63.53;;
19189;SDS011;9727;50.200;19.038;2023-03-01T02:58:39;174.57;;;66.43;;
19189;SDS011;9727;50.200;19.038;2023-03-01T03:01:11;167.40;;;64.53;;
19189;SDS011;9727;50.200;19.038;2023-03-01T03:03:38;162.67;;;64.37;;
19189;SDS011;9727;50.200;19.038;2023-03-01T03:06:05;176.33;;;67.97;;
19189;SDS011;9727;50.200;19.038;2023-03-01T03:08:31;178.40;;;67.93;;
19189;SDS011;9727;50.200;19.038;2023-03-01T03:10:58;172.03;;;66.03;;
19189;SDS011;9727;50.200;19.038;2023-03-01T03:13:25;170.50;;;65.27;;
19189;SDS011;9727;50.200;19.038;2023-03-01T03:15:56;159.70;;;63.43;;
19189;SDS011;9727;50.200;19.038;2023-03-01T03:18:24;157.13;;;61.60;;
19189;SDS011;9727;50.200;19.038;2023-03-01T03:20:52;174.43;;;64.53;;
19189;SDS011;9727;50.200;19.038;2023-03-01T03:23:19;167.37;;;63.60;;
19189;SDS011;9727;50.200;19.038;2023-03-01T03:25:47;162.53;;;62.80;;
19189;SDS011;9727;50.200;19.038;2023-03-01T03:28:15;171.37;;;64.20;;
19189;SDS011;9727;50.200;19.038;2023-03-01T03:30:42;155.77;;;61.27;;
19189;SDS011;9727;50.200;19.038;2023-03-01T03:33:11;174.67;;;63.27;;
19189;SDS011;9727;50.200;19.038;2023-03-01T03:35:39;159.77;;;60.63;;
19189;SDS011;9727;50.200;19.038;2023-03-01T03:38:07;168.63;;;61.93;;
19189;SDS011;9727;50.200;19.038;2023-03-01T03:40:41;156.37;;;58.30;;
19189;SDS011;9727;50.200;19.038;2023-03-01T03:43:09;159.10;;;58.00;;
19189;SDS011;9727;50.200;19.038;2023-03-01T03:45:37;148.77;;;57.40;;
19189;SDS011;9727;50.200;19.038;2023-03-01T03:48:06;150.27;;;59.77;;
19189;SDS011;9727;50.200;19.038;2023-03-01T03:50:36;141.37;;;56.77;;
19189;SDS011;9727;50.200;19.038;2023-03-01T03:53:04;152.40;;;58.97;;
19189;SDS011;9727;50.200;19.038;2023-03-01T03:55:31;142.47;;;55.30;;
19189;SDS011;9727;50.200;19.038;2023-03-01T03:57:59;139.00;;;55.53;;
19189;SDS011;9727;50.200;19.038;2023-03-01T04:00:31;138.50;;;55.87;;
19189;SDS011;9727;50.200;19.038;2023-03-01T04:02:58;141.03;;;54.43;;
19189;SDS011;9727;50.200;19.038;2023-03-01T04:05:26;149.67;;;56.13;;
19189;SDS011;9727;50.200;19.038;2023-03-01T04:07:54;139.87;;;54.60;;
19189;SDS011;9727;50.200;19.038;2023-03-01T04:10:34;136.67;;;51.97;;
19189;SDS011;9727;50.200;19.038;2023-03-01T04:13:02;130.33;;;51.23;;
19189;SDS011;9727;50.200;19.038;2023-03-01T04:15:30;134.40;;;51.23;;
19189;SDS011;9727;50.200;19.038;2023-03-01T04:17:58;122.23;;;49.47;;
19189;SDS011;9727;50.200;19.038;2023-03-01T04:20:25;118.70;;;47.53;;
19189;SDS011;9727;50.200;19.038;2023-03-01T04:22:58;121.80;;;50.93;;
19189;SDS011;9727;50.200;19.038;2023-03-01T04:25:25;129.37;;;49.10;;
19189;SDS011;9727;50.200;19.038;2023-03-01T04:27:51;139.83;;;55.27;;
19189;SDS011;9727;50.200;19.038;2023-03-01T04:30:19;253.13;;;91.57;;
19189;SDS011;9727;50.200;19.038;2023-03-01T04:32:50;230.30;;;86.67;;
19189;SDS011;9727;50.200;19.038;2023-03-01T04:35:18;208.93;;;78.50;;
19189;SDS011;9727;50.200;19.038;2023-03-01T04:37:45;219.20;;;79.70;;
19189;SDS011;9727;50.200;19.038;2023-03-01T04:40:15;195.67;;;74.03;;
19189;SDS011;9727;50.200;19.038;2023-03-01T04:42:42;206.90;;;73.00;;
19189;SDS011;9727;50.200;19.038;2023-03-01T04:45:09;174.77;;;63.50;;
19189;SDS011;9727;50.200;19.038;2023-03-01T04:47:39;155.20;;;56.03;;
19189;SDS011;9727;50.200;19.038;2023-03-01T04:50:06;136.27;;;53.17;;
19189;SDS011;9727;50.200;19.038;2023-03-01T04:52:34;129.53;;;50.50;;
19189;SDS011;9727;50.200;19.038;2023-03-01T04:55:00;128.70;;;50.77;;
19189;SDS011;9727;50.200;19.038;2023-03-01T04:57:28;132.10;;;49.57;;
19189;SDS011;9727;50.200;19.038;2023-03-01T04:59:55;129.53;;;48.63;;
19189;SDS011;9727;50.200;19.038;2023-03-01T05:02:21;120.83;;;49.73;;
19189;SDS011;9727;50.200;19.038;2023-03-01T05:04:48;133.73;;;50.33;;
19189;SDS011;9727;50.200;19.038;2023-03-01T05:07:16;126.20;;;48.93;;
19189;SDS011;9727;50.200;19.038;2023-03-01T05:09:50;133.57;;;50.87;;
19189;SDS011;9727;50.200;19.038;2023-03-01T05:12:16;138.30;;;51.73;;
19189;SDS011;9727;50.200;19.038;2023-03-01T05:14:44;149.27;;;55.80;;
19189;SDS011;9727;50.200;19.038;2023-03-01T05:17:12;135.97;;;53.33;;
19189;SDS011;9727;50.200;19.038;2023-03-01T05:19:39;146.73;;;56.00;;
19189;SDS011;9727;50.200;19.038;2023-03-01T05:22:07;155.90;;;55.93;;
19189;SDS011;9727;50.200;19.038;2023-03-01T05:24:34;161.60;;;58.43;;
19189;SDS011;9727;50.200;19.038;2023-03-01T05:27:02;149.40;;;56.80;;
19189;SDS011;9727;50.200;19.038;2023-03-01T05:29:30;157.60;;;57.03;;
19189;SDS011;9727;50.200;19.038;2023-03-01T05:32:01;146.10;;;54.53;;
19189;SDS011;9727;50.200;19.038;2023-03-01T05:34:29;127.60;;;45.43;;
19189;SDS011;9727;50.200;19.038;2023-03-01T05:36:56;114.57;;;44.30;;
19189;SDS011;9727;50.200;19.038;2023-03-01T05:39:24;113.80;;;45.70;;
19189;SDS011;9727;50.200;19.038;2023-03-01T05:41:51;124.30;;;50.60;;
19189;SDS011;9727;50.200;19.038;2023-03-01T05:44:18;124.90;;;51.07;;
19189;SDS011;9727;50.200;19.038;2023-03-01T05:46:47;133.13;;;50.10;;
19189;SDS011;9727;50.200;19.038;2023-03-01T05:49:16;124.67;;;47.53;;
19189;SDS011;9727;50.200;19.038;2023-03-01T05:51:47;126.93;;;46.33;;
19189;SDS011;9727;50.200;19.038;2023-03-01T05:54:14;133.80;;;46.87;;
19189;SDS011;9727;50.200;19.038;2023-03-01T05:56:41;137.27;;;48.60;;
19189;SDS011;9727;50.200;19.038;2023-03-01T05:59:08;129.07;;;45.83;;
19189;SDS011;9727;50.200;19.038;2023-03-01T06:01:35;134.87;;;46.67;;
19189;SDS011;9727;50.200;19.038;2023-03-01T06:04:02;107.40;;;40.83;;
19189;SDS011;9727;50.200;19.038;2023-03-01T06:06:32;99.73;;;37.47;;
19189;SDS011;9727;50.200;19.038;2023-03-01T06:08:59;89.80;;;32.17;;
19189;SDS011;9727;50.200;19.038;2023-03-01T06:11:26;91.77;;;35.50;;
19189;SDS011;9727;50.200;19.038;2023-03-01T06:13:52;77.33;;;31.53;;
19189;SDS011;9727;50.200;19.038;2023-03-01T06:16:19;76.23;;;29.43;;
19189;SDS011;9727;50.200;19.038;2023-03-01T06:18:45;70.37;;;29.80;;
19189;SDS011;9727;50.200;19.038;2023-03-01T06:21:13;65.50;;;27.90;;
19189;SDS011;9727;50.200;19.038;2023-03-01T06:23:41;58.20;;;27.77;;
19189;SDS011;9727;50.200;19.038;2023-03-01T06:26:09;80.00;;;33.50;;
19189;SDS011;9727;50.200;19.038;2023-03-01T06:28:36;85.37;;;33.07;;
19189;SDS011;9727;50.200;19.038;2023-03-01T06:31:03;88.60;;;35.17;;
19189;SDS011;9727;50.200;19.038;2023-03-01T06:33:33;92.30;;;37.03;;
19189;SDS011;9727;50.200;19.038;2023-03-01T06:36:01;98.20;;;37.13;;
19189;SDS011;9727;50.200;19.038;2023-03-01T06:38:27;94.00;;;37.47;;
19189;SDS011;9727;50.200;19.038;2023-03-01T06:40:55;99.13;;;39.27;;
19189;SDS011;9727;50.200;19.038;2023-03-01T06:43:22;106.97;;;39.37;;
19189;SDS011;9727;50.200;19.038;2023-03-01T06:45:52;101.97;;;39.07;;
19189;SDS011;9727;50.200;19.038;2023-03-01T06:48:19;92.63;;;37.00;;
19189;SDS011;9727;50.200;19.038;2023-03-01T06:50:47;100.03;;;39.43;;
19189;SDS011;9727;50.200;19.038;2023-03-01T06:53:14;91.57;;;37.33;;
19189;SDS011;9727;50.200;19.038;2023-03-01T06:55:40;110.00;;;39.37;;
19189;SDS011;9727;50.200;19.038;2023-03-01T06:58:09;97.17;;;40.13;;
19189;SDS011;9727;50.200;19.038;2023-03-01T07:00:36;103.30;;;40.47;;
19189;SDS011;9727;50.200;19.038;2023-03-01T07:03:05;95.40;;;38.73;;
19189;SDS011;9727;50.200;19.038;2023-03-01T07:05:32;93.23;;;39.10;;
19189;SDS011;9727;50.200;19.038;2023-03-01T07:07:59;90.93;;;38.13;;
19189;SDS011;9727;50.200;19.038;2023-03-01T07:10:26;98.67;;;40.40;;
19189;SDS011;9727;50.200;19.038;2023-03-01T07:12:54;95.80;;;38.40;;
19189;SDS011;9727;50.200;19.038;2023-03-01T07:15:43;97.13;;;38.90;;
19189;SDS011;9727;50.200;19.038;2023-03-01T07:18:10;99.27;;;39.83;;
19189;SDS011;9727;50.200;19.038;2023-03-01T07:20:36;95.87;;;39.73;;
19189;SDS011;9727;50.200;19.038;2023-03-01T07:23:04;84.77;;;37.50;;
19189;SDS011;9727;50.200;19.038;2023-03-01T07:25:31;88.80;;;36.30;;
19189;SDS011;9727;50.200;19.038;2023-03-01T07:28:10;82.47;;;34.73;;
19189;SDS011;9727;50.200;19.038;2023-03-01T07:30:44;73.77;;;30.77;;
19189;SDS011;9727;50.200;19.038;2023-03-01T07:33:14;60.67;;;25.93;;
19189;SDS011;9727;50.200;19.038;2023-03-01T07:35:43;50.87;;;23.83;;
19189;SDS011;9727;50.200;19.038;2023-03-01T07:38:10;52.27;;;23.93;;
19189;SDS011;9727;50.200;19.038;2023-03-01T07:40:37;49.60;;;21.83;;
19189;SDS011;9727;50.200;19.038;2023-03-01T07:43:03;46.60;;;22.27;;
19189;SDS011;9727;50.200;19.038;2023-03-01T07:45:43;51.00;;;22.33;;
19189;SDS011;9727;50.200;19.038;2023-03-01T07:48:10;50.87;;;23.63;;
19189;SDS011;9727;50.200;19.038;2023-03-01T07:50:36;49.87;;;22.90;;
19189;SDS011;9727;50.200;19.038;2023-03-01T07:53:03;55.37;;;24.17;;
19189;SDS011;9727;50.200;19.038;2023-03-01T07:55:30;50.47;;;24.70;;
19189;SDS011;9727;50.200;19.038;2023-03-01T07:57:57;52.67;;;24.80;;
19189;SDS011;9727;50.200;19.038;2023-03-01T08:00:23;53.67;;;23.83;;
19189;SDS011;9727;50.200;19.038;2023-03-01T08:02:52;44.33;;;22.17;;
19189;SDS011;9727;50.200;19.038;2023-03-01T08:05:18;47.80;;;22.60;;
19189;SDS011;9727;50.200;19.038;2023-03-01T08:07:47;44.07;;;22.90;;
19189;SDS011;9727;50.200;19.038;2023-03-01T08:10:13;49.40;;;24.23;;
19189;SDS011;9727;50.200;19.038;2023-03-01T08:12:40;46.30;;;22.13;;
19189;SDS011;9727;50.200;19.038;2023-03-01T08:15:07;47.30;;;21.50;;
19189;SDS011;9727;50.200;19.038;2023-03-01T08:17:34;45.43;;;20.30;;
19189;SDS011;9727;50.200;19.038;2023-03-01T08:20:10;34.07;;;18.03;;
19189;SDS011;9727;50.200;19.038;2023-03-01T08:22:39;36.17;;;17.33;;
19189;SDS011;9727;50.200;19.038;2023-03-01T08:25:06;37.40;;;17.53;;
19189;SDS011;9727;50.200;19.038;2023-03-01T08:27:33;33.37;;;17.73;;
19189;SDS011;9727;50.200;19.038;2023-03-01T08:30:00;36.50;;;17.40;;
19189;SDS011;9727;50.200;19.038;2023-03-01T08:32:27;40.07;;;18.37;;
19189;SDS011;9727;50.200;19.038;2023-03-01T08:34:54;35.33;;;17.40;;
19189;SDS011;9727;50.200;19.038;2023-03-01T08:37:22;37.60;;;17.57;;
19189;SDS011;9727;50.200;19.038;2023-03-01T08:39:50;35.67;;;18.07;;
19189;SDS011;9727;50.200;19.038;2023-03-01T08:42:17;37.40;;;17.40;;
19189;SDS011;9727;50.200;19.038;2023-03-01T08:44:44;37.43;;;17.60;;
19189;SDS011;9727;50.200;19.038;2023-03-01T08:47:11;39.70;;;18.03;;
19189;SDS011;9727;50.200;19.038;2023-03-01T08:49:37;34.50;;;17.27;;
19189;SDS011;9727;50.200;19.038;2023-03-01T08:52:05;38.37;;;17.77;;
19189;SDS011;9727;50.200;19.038;2023-03-01T08:54:33;38.90;;;17.03;;
19189;SDS011;9727;50.200;19.038;2023-03-01T08:57:01;35.67;;;16.80;;
19189;SDS011;9727;50.200;19.038;2023-03-01T08:59:27;36.70;;;16.30;;
19189;SDS011;9727;50.200;19.038;2023-03-01T09:01:55;34.40;;;17.07;;
19189;SDS011;9727;50.200;19.038;2023-03-01T09:04:21;32.13;;;15.30;;
19189;SDS011;9727;50.200;19.038;2023-03-01T09:06:48;35.03;;;15.90;;
19189;SDS011;9727;50.200;19.038;2023-03-01T09:09:17;34.13;;;15.20;;
19189;SDS011;9727;50.200;19.038;2023-03-01T09:11:46;35.87;;;15.83;;
19189;SDS011;9727;50.200;19.038;2023-03-01T09:14:16;30.50;;;13.90;;
19189;SDS011;9727;50.200;19.038;2023-03-01T09:16:43;31.87;;;14.87;;
19189;SDS011;9727;50.200;19.038;2023-03-01T09:19:10;32.70;;;16.37;;
19189;SDS011;9727;50.200;19.038;2023-03-01T09:21:37;44.90;;;19.20;;
19189;SDS011;9727;50.200;19.038;2023-03-01T09:24:04;48.37;;;19.43;;
19189;SDS011;9727;50.200;19.038;2023-03-01T09:26:31;37.00;;;17.60;;
19189;SDS011;9727;50.200;19.038;2023-03-01T09:29:00;39.27;;;17.97;;
19189;SDS011;9727;50.200;19.038;2023-03-01T09:31:26;42.23;;;19.17;;
19189;SDS011;9727;50.200;19.038;2023-03-01T09:33:53;42.80;;;20.40;;
19189;SDS011;9727;50.200;19.038;2023-03-01T09:36:21;44.93;;;19.90;;
19189;SDS011;9727;50.200;19.038;2023-03-01T09:38:48;47.27;;;22.07;;
19189;SDS011;9727;50.200;19.038;2023-03-01T09:41:22;51.40;;;22.37;;
19189;SDS011;9727;50.200;19.038;2023-03-01T09:43:52;47.67;;;22.43;;
19189;SDS011;9727;50.200;19.038;2023-03-01T09:46:23;44.60;;;22.07;;
19189;SDS011;9727;50.200;19.038;2023-03-01T09:48:51;50.83;;;24.27;;
19189;SDS011;9727;50.200;19.038;2023-03-01T09:51:19;55.00;;;24.17;;
19189;SDS011;9727;50.200;19.038;2023-03-01T09:53:50;51.07;;;22.70;;
19189;SDS011;9727;50.200;19.038;2023-03-01T09:56:20;49.10;;;21.97;;
19189;SDS011;9727;50.200;19.038;2023-03-01T09:58:52;43.50;;;21.80;;
19189;SDS011;9727;50.200;19.038;2023-03-01T10:06:55;40.53;;;21.00;;
19189;SDS011;9727;50.200;19.038;2023-03-01T10:09:33;43.03;;;20.63;;
19189;SDS011;9727;50.200;19.038;2023-03-01T10:12:00;41.33;;;20.10;;
19189;SDS011;9727;50.200;19.038;2023-03-01T10:14:30;37.47;;;19.63;;
19189;SDS011;9727;50.200;19.038;2023-03-01T10:16:58;36.43;;;18.57;;
19189;SDS011;9727;50.200;19.038;2023-03-01T10:19:29;39.73;;;19.73;;
19189;SDS011;9727;50.200;19.038;2023-03-01T10:22:00;43.77;;;20.07;;
19189;SDS011;9727;50.200;19.038;2023-03-01T10:24:28;39.60;;;19.40;;
19189;SDS011;9727;50.200;19.038;2023-03-01T10:26:58;41.53;;;19.23;;
19189;SDS011;9727;50.200;19.038;2023-03-01T10:29:29;38.03;;;18.13;;
19189;SDS011;9727;50.200;19.038;2023-03-01T10:31:58;39.23;;;18.37;;
19189;SDS011;9727;50.200;19.038;2023-03-01T10:34:27;39.97;;;19.40;;
19189;SDS011;9727;50.200;19.038;2023-03-01T10:36:55;41.97;;;20.07;;
19189;SDS011;9727;50.200;19.038;2023-03-01T10:39:24;39.53;;;19.47;;
19189;SDS011;9727;50.200;19.038;2023-03-01T10:41:52;42.23;;;19.67;;
19189;SDS011;9727;50.200;19.038;2023-03-01T10:44:34;38.73;;;20.03;;
19189;SDS011;9727;50.200;19.038;2023-03-01T10:47:01;54.43;;;24.43;;
19189;SDS011;9727;50.200;19.038;2023-03-01T10:49:38;49.23;;;23.27;;
19189;SDS011;9727;50.200;19.038;2023-03-01T10:52:15;51.83;;;24.10;;
19189;SDS011;9727;50.200;19.038;2023-03-01T10:54:52;47.17;;;23.47;;
19189;SDS011;9727;50.200;19.038;2023-03-01T10:57:27;49.70;;;24.40;;
19189;SDS011;9727;50.200;19.038;2023-03-01T11:00:00;51.20;;;25.70;;
19189;SDS011;9727;50.200;19.038;2023-03-01T11:02:28;57.23;;;25.73;;
19189;SDS011;9727;50.200;19.038;2023-03-01T11:04:59;57.87;;;25.97;;
19189;SDS011;9727;50.200;19.038;2023-03-01T11:07:26;59.37;;;26.40;;
19189;SDS011;9727;50.200;19.038;2023-03-01T11:09:54;62.03;;;27.33;;
19189;SDS011;9727;50.200;19.038;2023-03-01T11:12:21;56.90;;;26.60;;
19189;SDS011;9727;50.200;19.038;2023-03-01T11:14:55;50.57;;;25.67;;
19189;SDS011;9727;50.200;19.038;2023-03-01T11:17:23;53.27;;;24.80;;
19189;SDS011;9727;50.200;19.038;2023-03-01T11:20:00;50.90;;;24.53;;
19189;SDS011;9727;50.200;19.038;2023-03-01T11:22:26;51.13;;;23.80;;
19189;SDS011;9727;50.200;19.038;2023-03-01T11:24:55;43.63;;;23.87;;
19189;SDS011;9727;50.200;19.038;2023-03-01T11:27:24;49.30;;;23.17;;
19189;SDS011;9727;50.200;19.038;2023-03-01T11:29:57;42.07;;;21.13;;
19189;SDS011;9727;50.200;19.038;2023-03-01T11:32:26;43.67;;;21.93;;
19189;SDS011;9727;50.200;19.038;2023-03-01T11:34:54;46.83;;;21.70;;
19189;SDS011;9727;50.200;19.038;2023-03-01T11:37:26;46.53;;;22.60;;
19189;SDS011;9727;50.200;19.038;2023-03-01T11:39:58;46.97;;;22.77;;
19189;SDS011;9727;50.200;19.038;2023-03-01T11:42:28;43.90;;;21.53;;
19189;SDS011;9727;50.200;19.038;2023-03-01T11:44:59;41.80;;;20.97;;
19189;SDS011;9727;50.200;19.038;2023-03-01T11:47:31;43.43;;;21.53;;
19189;SDS011;9727;50.200;19.038;2023-03-01T11:50:05;40.30;;;20.07;;
19189;SDS011;9727;50.200;19.038;2023-03-01T11:52:36;41.43;;;20.30;;
19189;SDS011;9727;50.200;19.038;2023-03-01T11:55:16;38.10;;;20.43;;
19189;SDS011;9727;50.200;19.038;2023-03-01T11:57:48;41.77;;;21.93;;
19189;SDS011;9727;50.200;19.038;2023-03-01T12:00:25;44.27;;;21.90;;
19189;SDS011;9727;50.200;19.038;2023-03-01T12:05:48;41.40;;;21.03;;
19189;SDS011;9727;50.200;19.038;2023-03-01T12:08:19;39.50;;;21.27;;
19189;SDS011;9727;50.200;19.038;2023-03-01T12:10:52;44.43;;;21.77;;
19189;SDS011;9727;50.200;19.038;2023-03-01T12:13:38;45.47;;;22.20;;
19189;SDS011;9727;50.200;19.038;2023-03-01T12:16:13;47.83;;;22.97;;
19189;SDS011;9727;50.200;19.038;2023-03-01T12:18:45;50.13;;;23.07;;
19189;SDS011;9727;50.200;19.038;2023-03-01T12:21:20;49.33;;;23.70;;
19189;SDS011;9727;50.200;19.038;2023-03-01T12:23:55;47.97;;;23.13;;
19189;SDS011;9727;50.200;19.038;2023-03-01T12:26:26;44.43;;;22.10;;
19189;SDS011;9727;50.200;19.038;2023-03-01T12:31:51;43.43;;;20.93;;
19189;SDS011;9727;50.200;19.038;2023-03-01T12:34:25;36.80;;;17.10;;
19189;SDS011;9727;50.200;19.038;2023-03-01T12:36:58;42.57;;;16.80;;
19189;SDS011;9727;50.200;19.038;2023-03-01T12:39:33;34.27;;;16.73;;
19189;SDS011;9727;50.200;19.038;2023-03-01T12:42:08;37.20;;;17.87;;
19189;SDS011;9727;50.200;19.038;2023-03-01T12:44:42;34.23;;;18.27;;
19189;SDS011;9727;50.200;19.038;2023-03-01T12:47:17;33.43;;;17.10;;
19189;SDS011;9727;50.200;19.038;2023-03-01T12:49:51;35.07;;;16.97;;
19189;SDS011;9727;50.200;19.038;2023-03-01T12:52:21;32.37;;;16.27;;
19189;SDS011;9727;50.200;19.038;2023-03-01T12:54:52;29.43;;;15.67;;
19189;SDS011;9727;50.200;19.038;2023-03-01T12:57:24;32.77;;;16.37;;
19189;SDS011;9727;50.200;19.038;2023-03-01T12:59:59;34.57;;;17.10;;
19189;SDS011;9727;50.200;19.038;2023-03-01T13:02:31;38.00;;;16.50;;
19189;SDS011;9727;50.200;19.038;2023-03-01T13:05:02;29.60;;;16.13;;
19189;SDS011;9727;50.200;19.038;2023-03-01T13:07:35;30.47;;;14.60;;
19189;SDS011;9727;50.200;19.038;2023-03-01T13:10:19;34.67;;;15.60;;
19189;SDS011;9727;50.200;19.038;2023-03-01T13:13:00;32.73;;;16.23;;
19189;SDS011;9727;50.200;19.038;2023-03-01T13:15:28;36.23;;;17.47;;
19189;SDS011;9727;50.200;19.038;2023-03-01T13:17:59;33.20;;;16.10;;
19189;SDS011;9727;50.200;19.038;2023-03-01T13:20:27;32.83;;;16.43;;
19189;SDS011;9727;50.200;19.038;2023-03-01T13:23:12;31.23;;;15.80;;
19189;SDS011;9727;50.200;19.038;2023-03-01T13:31:55;29.83;;;15.37;;
19189;SDS011;9727;50.200;19.038;2023-03-01T13:34:03;32.10;;;15.07;;
19189;SDS011;9727;50.200;19.038;2023-03-01T13:36:47;30.63;;;15.23;;
19189;SDS011;9727;50.200;19.038;2023-03-01T13:39:31;29.70;;;14.43;;
19189;SDS011;9727;50.200;19.038;2023-03-01T13:44:55;31.20;;;14.53;;
19189;SDS011;9727;50.200;19.038;2023-03-01T13:47:24;30.00;;;14.30;;
19189;SDS011;9727;50.200;19.038;2023-03-01T13:49:55;27.20;;;13.77;;
19189;SDS011;9727;50.200;19.038;2023-03-01T13:52:38;24.97;;;13.97;;
19189;SDS011;9727;50.200;19.038;2023-03-01T13:55:06;27.33;;;14.00;;
19189;SDS011;9727;50.200;19.038;2023-03-01T13:57:44;26.93;;;14.20;;
19189;SDS011;9727;50.200;19.038;2023-03-01T14:00:29;30.87;;;13.90;;
19189;SDS011;9727;50.200;19.038;2023-03-01T14:03:02;27.40;;;13.77;;
19189;SDS011;9727;50.200;19.038;2023-03-01T14:05:29;30.27;;;13.63;;
19189;SDS011;9727;50.200;19.038;2023-03-01T14:07:55;29.30;;;14.83;;
19189;SDS011;9727;50.200;19.038;2023-03-01T14:10:22;31.60;;;14.07;;
19189;SDS011;9727;50.200;19.038;2023-03-01T14:12:54;25.53;;;13.27;;
19189;SDS011;9727;50.200;19.038;2023-03-01T14:15:27;27.23;;;13.43;;
19189;SDS011;9727;50.200;19.038;2023-03-01T14:18:02;27.77;;;13.20;;
19189;SDS011;9727;50.200;19.038;2023-03-01T14:20:37;27.17;;;13.30;;
19189;SDS011;9727;50.200;19.038;2023-03-01T14:23:09;26.07;;;12.77;;
19189;SDS011;9727;50.200;19.038;2023-03-01T14:25:37;25.83;;;12.60;;
19189;SDS011;9727;50.200;19.038;2023-03-01T14:28:13;27.93;;;13.23;;
19189;SDS011;9727;50.200;19.038;2023-03-01T14:30:42;24.50;;;13.40;;
19189;SDS011;9727;50.200;19.038;2023-03-01T14:33:18;21.73;;;12.80;;
19189;SDS011;9727;50.200;19.038;2023-03-01T14:38:41;26.10;;;12.90;;
19189;SDS011;9727;50.200;19.038;2023-03-01T14:41:08;29.43;;;13.03;;
19189;SDS011;9727;50.200;19.038;2023-03-01T14:43:36;25.03;;;11.90;;
19189;SDS011;9727;50.200;19.038;2023-03-01T14:46:03;29.57;;;13.57;;
19189;SDS011;9727;50.200;19.038;2023-03-01T14:48:30;25.33;;;13.53;;
19189;SDS011;9727;50.200;19.038;2023-03-01T14:50:57;25.67;;;12.70;;